Time,TemperatureF,DewpointF,PressureIn,WindDirection,WindDirectionDegrees,WindSpeedMPH,WindSpeedGustMPH,Humidity,HourlyPrecipIn,Conditions,Clouds,dailyrainin,SoftwareType,DateUTC
2013-09-02 00:13:00,82.0,65.0,29.87,North,0,0.0,0.0,56,0.00,,,0.00,,2013-09-02 05:13:00,
2013-09-02 00:23:00,82.0,65.0,29.87,North,0,0.0,0.0,56,0.00,,,0.00,,2013-09-02 05:23:00,
2013-09-02 00:34:00,82.0,65.0,29.87,North,0,0.0,0.0,56,0.00,,,0.00,,2013-09-02 05:34:00,
2013-09-02 02:11:00,79.0,68.0,29.89,North,0,0.0,0.0,69,0.00,,,0.00,,2013-09-02 07:11:00,
2013-09-02 02:21:00,79.0,68.0,29.89,North,0,0.0,0.0,69,0.00,,,0.00,,2013-09-02 07:21:00,
2013-09-02 02:33:00,79.0,68.0,29.89,North,0,0.0,0.0,69,0.00,,,0.00,,2013-09-02 07:33:00,
2013-09-02 02:52:00,78.0,69.0,29.89,North,0,0.0,0.0,74,0.00,,,0.00,,2013-09-02 07:52:00,
2013-09-02 03:02:00,78.0,69.0,29.89,North,0,0.0,0.0,74,0.00,,,0.00,,2013-09-02 08:02:00,
2013-09-02 03:11:00,78.0,69.0,29.89,North,0,0.0,0.0,74,0.00,,,0.00,,2013-09-02 08:11:00,
2013-09-02 05:22:00,75.0,69.0,29.90,North,0,0.0,0.0,81,0.00,,,0.00,,2013-09-02 10:22:00,
2013-09-02 05:53:00,75.0,69.0,29.90,North,0,0.0,0.0,81,0.00,,,0.00,,2013-09-02 10:53:00,
2013-09-02 06:03:00,75.0,69.0,29.90,North,0,0.0,0.0,81,0.00,,,0.00,,2013-09-02 11:03:00,
2013-09-02 06:11:00,75.0,69.0,29.90,North,0,0.0,0.0,81,0.00,,,0.00,,2013-09-02 11:11:00,
2013-09-02 08:11:00,73.0,68.0,29.92,North,0,0.0,0.0,85,0.00,,,0.00,,2013-09-02 13:11:00,
2013-09-02 08:22:00,73.0,68.0,29.92,North,0,0.0,0.0,85,0.00,,,0.00,,2013-09-02 13:22:00,
2013-09-02 08:52:00,74.0,69.0,29.95,North,0,0.0,0.0,85,0.00,,,0.00,,2013-09-02 13:52:00,
2013-09-02 09:01:00,79.0,72.0,29.95,North,0,0.0,0.0,79,0.00,,,0.00,,2013-09-02 14:01:00,
2013-09-02 09:02:00,74.0,69.0,29.95,North,0,0.0,0.0,85,0.00,,,0.00,,2013-09-02 14:02:00,
2013-09-02 09:22:00,79.0,72.0,29.95,North,0,0.0,0.0,79,0.00,,,0.00,,2013-09-02 14:22:00,
2013-09-02 09:32:00,79.0,72.0,29.95,North,0,0.0,0.0,79,0.00,,,0.00,,2013-09-02 14:32:00,
2013-09-02 09:52:00,79.0,72.0,29.95,North,0,0.0,0.0,79,0.00,,,0.00,,2013-09-02 14:52:00,
2013-09-02 11:53:00,93.0,71.0,29.97,North,0,0.0,0.0,49,0.00,,,0.00,,2013-09-02 16:53:00,
2013-09-02 12:03:00,93.0,71.0,29.97,North,0,0.0,0.0,49,0.00,,,0.00,,2013-09-02 17:03:00,
2013-09-02 14:20:00,96.0,68.0,29.90,North,0,0.0,0.0,41,0.00,,,0.00,,2013-09-02 19:20:00,
2013-09-02 14:52:00,96.0,68.0,29.90,North,0,0.0,0.0,41,0.00,,,0.00,,2013-09-02 19:52:00,
2013-09-02 15:02:00,96.0,68.0,29.90,North,0,0.0,0.0,41,0.00,,,0.00,,2013-09-02 20:02:00,
2013-09-02 15:12:00,96.0,68.0,29.90,North,0,0.0,0.0,41,0.00,,,0.00,,2013-09-02 20:12:00,
2013-09-02 17:54:00,87.0,68.0,29.85,North,0,0.0,0.0,53,0.00,,,0.00,,2013-09-02 22:54:00,
2013-09-02 18:03:00,87.0,68.0,29.85,North,0,0.0,0.0,53,0.00,,,0.00,,2013-09-02 23:03:00,
2013-09-02 18:22:00,82.0,69.0,29.85,North,0,0.0,0.0,66,0.00,,,0.00,,2013-09-02 23:22:00,
2013-09-02 18:42:00,80.0,68.0,29.84,North,0,0.0,0.0,68,0.00,,,0.00,,2013-09-02 23:42:00,
2013-09-02 18:52:00,80.0,68.0,29.84,North,0,0.0,0.0,68,0.00,,,0.00,,2013-09-02 23:52:00,
2013-09-02 19:01:00,80.0,68.0,29.84,North,0,0.0,0.0,68,0.00,,,0.00,,2013-09-03 00:01:00,
2013-09-02 22:11:00,77.0,70.0,29.91,North,0,0.0,0.0,80,0.04,,,0.04,,2013-09-03 03:11:00,
2013-09-02 22:23:00,77.0,70.0,29.91,North,0,0.0,0.0,80,0.04,,,0.04,,2013-09-03 03:23:00,
2013-09-02 22:34:00,77.0,70.0,29.91,North,0,0.0,0.0,80,0.04,,,0.04,,2013-09-03 03:34:00,
2013-09-02 23:03:00,75.0,70.0,29.93,North,0,0.0,0.0,85,0.00,,,0.04,,2013-09-03 04:03:00,
2013-09-02 23:25:00,75.0,70.0,29.93,North,0,0.0,0.0,85,0.00,,,0.04,,2013-09-03 04:25:00,
2013-09-02 23:34:00,75.0,70.0,29.93,North,0,0.0,0.0,85,0.00,,,0.04,,2013-09-03 04:34:00,
2013-09-02 23:53:00,75.0,70.0,29.93,North,0,0.0,0.0,85,0.00,,,0.04,,2013-09-03 04:53:00,